sensor_id;sensor_type;location;lat;lon;timestamp;P1;durP1;ratioP1;P2;durP2;ratioP2
10517;SDS011;5307;42.548;22.968;2023-09-18T00:01:54;21.35;;;14.38;;
10517;SDS011;5307;42.548;22.968;2023-09-18T00:04:21;23.45;;;14.80;;
10517;SDS011;5307;42.548;22.968;2023-09-18T00:06:49;23.38;;;15.20;;
10517;SDS011;5307;42.548;22.968;2023-09-18T00:09:15;18.48;;;13.65;;
10517;SDS011;5307;42.548;22.968;2023-09-18T00:11:44;19.08;;;14.55;;
10517;SDS011;5307;42.548;22.968;2023-09-18T00:14:10;25.75;;;13.93;;
10517;SDS011;5307;42.548;22.968;2023-09-18T00:16:37;24.38;;;14.93;;
10517;SDS011;5307;42.548;22.968;2023-09-18T00:19:04;21.23;;;14.13;;
10517;SDS011;5307;42.548;22.968;2023-09-18T00:21:32;20.15;;;13.20;;
10517;SDS011;5307;42.548;22.968;2023-09-18T00:23:59;19.00;;;14.18;;
10517;SDS011;5307;42.548;22.968;2023-09-18T00:26:26;20.83;;;14.80;;
10517;SDS011;5307;42.548;22.968;2023-09-18T00:28:54;24.95;;;15.30;;
10517;SDS011;5307;42.548;22.968;2023-09-18T00:31:21;20.17;;;14.13;;
10517;SDS011;5307;42.548;22.968;2023-09-18T00:33:48;23.58;;;14.68;;
10517;SDS011;5307;42.548;22.968;2023-09-18T00:36:15;18.25;;;14.20;;
10517;SDS011;5307;42.548;22.968;2023-09-18T00:38:41;22.70;;;14.43;;
10517;SDS011;5307;42.548;22.968;2023-09-18T00:41:09;23.92;;;14.88;;
10517;SDS011;5307;42.548;22.968;2023-09-18T00:43:36;17.33;;;13.85;;
10517;SDS011;5307;42.548;22.968;2023-09-18T00:46:05;20.38;;;14.00;;
10517;SDS011;5307;42.548;22.968;2023-09-18T00:48:32;24.30;;;14.00;;
10517;SDS011;5307;42.548;22.968;2023-09-18T00:50:59;30.85;;;14.95;;
10517;SDS011;5307;42.548;22.968;2023-09-18T00:53:28;22.80;;;14.50;;
10517;SDS011;5307;42.548;22.968;2023-09-18T00:55:55;21.75;;;14.93;;
10517;SDS011;5307;42.548;22.968;2023-09-18T00:58:26;25.35;;;14.48;;
10517;SDS011;5307;42.548;22.968;2023-09-18T01:00:53;20.08;;;13.35;;
10517;SDS011;5307;42.548;22.968;2023-09-18T01:03:21;21.50;;;14.52;;
10517;SDS011;5307;42.548;22.968;2023-09-18T01:05:50;24.25;;;14.85;;
10517;SDS011;5307;42.548;22.968;2023-09-18T01:08:17;25.33;;;13.82;;
10517;SDS011;5307;42.548;22.968;2023-09-18T01:10:46;19.05;;;13.98;;
10517;SDS011;5307;42.548;22.968;2023-09-18T01:13:21;17.90;;;14.00;;
10517;SDS011;5307;42.548;22.968;2023-09-18T01:15:54;19.85;;;13.45;;
10517;SDS011;5307;42.548;22.968;2023-09-18T01:18:30;21.55;;;15.00;;
10517;SDS011;5307;42.548;22.968;2023-09-18T01:20:57;20.20;;;13.68;;
10517;SDS011;5307;42.548;22.968;2023-09-18T01:23:25;21.60;;;14.90;;
10517;SDS011;5307;42.548;22.968;2023-09-18T01:25:52;20.42;;;14.55;;
10517;SDS011;5307;42.548;22.968;2023-09-18T01:28:20;23.80;;;15.05;;
10517;SDS011;5307;42.548;22.968;2023-09-18T01:30:46;22.52;;;15.90;;
10517;SDS011;5307;42.548;22.968;2023-09-18T01:33:13;19.55;;;14.88;;
10517;SDS011;5307;42.548;22.968;2023-09-18T01:35:41;20.30;;;16.05;;
10517;SDS011;5307;42.548;22.968;2023-09-18T01:38:08;19.95;;;14.95;;
10517;SDS011;5307;42.548;22.968;2023-09-18T01:40:37;22.88;;;15.90;;
10517;SDS011;5307;42.548;22.968;2023-09-18T01:43:05;21.90;;;17.00;;
10517;SDS011;5307;42.548;22.968;2023-09-18T01:45:32;21.50;;;15.65;;
10517;SDS011;5307;42.548;22.968;2023-09-18T01:47:59;22.17;;;15.45;;
10517;SDS011;5307;42.548;22.968;2023-09-18T01:50:26;20.90;;;16.00;;
10517;SDS011;5307;42.548;22.968;2023-09-18T01:52:53;26.42;;;15.85;;
10517;SDS011;5307;42.548;22.968;2023-09-18T01:55:19;24.83;;;14.75;;
10517;SDS011;5307;42.548;22.968;2023-09-18T01:57:48;23.60;;;16.08;;
10517;SDS011;5307;42.548;22.968;2023-09-18T02:00:15;22.42;;;17.42;;
10517;SDS011;5307;42.548;22.968;2023-09-18T02:02:43;25.67;;;17.23;;
10517;SDS011;5307;42.548;22.968;2023-09-18T02:05:10;25.17;;;18.00;;
10517;SDS011;5307;42.548;22.968;2023-09-18T02:07:36;26.67;;;17.60;;
10517;SDS011;5307;42.548;22.968;2023-09-18T02:10:03;23.42;;;17.20;;
10517;SDS011;5307;42.548;22.968;2023-09-18T02:12:32;26.90;;;18.05;;
10517;SDS011;5307;42.548;22.968;2023-09-18T02:15:00;25.10;;;16.05;;
10517;SDS011;5307;42.548;22.968;2023-09-18T02:17:31;22.42;;;16.67;;
10517;SDS011;5307;42.548;22.968;2023-09-18T02:19:58;23.08;;;15.82;;
10517;SDS011;5307;42.548;22.968;2023-09-18T02:22:26;24.65;;;17.25;;
10517;SDS011;5307;42.548;22.968;2023-09-18T02:24:52;24.83;;;16.77;;
10517;SDS011;5307;42.548;22.968;2023-09-18T02:27:19;24.52;;;15.77;;
10517;SDS011;5307;42.548;22.968;2023-09-18T02:29:46;28.73;;;16.63;;
10517;SDS011;5307;42.548;22.968;2023-09-18T02:32:16;25.10;;;16.05;;
10517;SDS011;5307;42.548;22.968;2023-09-18T02:34:43;22.13;;;15.70;;
10517;SDS011;5307;42.548;22.968;2023-09-18T02:37:10;23.42;;;16.58;;
10517;SDS011;5307;42.548;22.968;2023-09-18T02:39:38;25.52;;;18.00;;
10517;SDS011;5307;42.548;22.968;2023-09-18T02:42:05;24.63;;;14.80;;
10517;SDS011;5307;42.548;22.968;2023-09-18T02:44:31;22.58;;;15.23;;
10517;SDS011;5307;42.548;22.968;2023-09-18T02:46:58;19.42;;;15.00;;
10517;SDS011;5307;42.548;22.968;2023-09-18T02:49:26;20.00;;;13.95;;
10517;SDS011;5307;42.548;22.968;2023-09-18T02:51:55;19.52;;;14.50;;
10517;SDS011;5307;42.548;22.968;2023-09-18T02:54:21;19.70;;;14.15;;
10517;SDS011;5307;42.548;22.968;2023-09-18T02:56:48;19.52;;;15.10;;
10517;SDS011;5307;42.548;22.968;2023-09-18T02:59:17;23.65;;;17.80;;
10517;SDS011;5307;42.548;22.968;2023-09-18T03:01:44;19.77;;;16.35;;
10517;SDS011;5307;42.548;22.968;2023-09-18T03:04:11;22.30;;;16.08;;
10517;SDS011;5307;42.548;22.968;2023-09-18T03:06:39;21.52;;;15.30;;
10517;SDS011;5307;42.548;22.968;2023-09-18T03:09:12;19.92;;;14.65;;
10517;SDS011;5307;42.548;22.968;2023-09-18T03:11:39;21.35;;;14.60;;
10517;SDS011;5307;42.548;22.968;2023-09-18T03:14:06;22.42;;;14.90;;
10517;SDS011;5307;42.548;22.968;2023-09-18T03:16:33;20.70;;;14.27;;
10517;SDS011;5307;42.548;22.968;2023-09-18T03:18:59;21.92;;;15.35;;
10517;SDS011;5307;42.548;22.968;2023-09-18T03:21:26;22.33;;;15.52;;
10517;SDS011;5307;42.548;22.968;2023-09-18T03:23:54;22.00;;;15.70;;
10517;SDS011;5307;42.548;22.968;2023-09-18T03:26:23;23.10;;;15.48;;
10517;SDS011;5307;42.548;22.968;2023-09-18T03:28:49;24.23;;;15.02;;
10517;SDS011;5307;42.548;22.968;2023-09-18T03:31:16;26.30;;;15.90;;
10517;SDS011;5307;42.548;22.968;2023-09-18T03:33:43;23.30;;;15.48;;
10517;SDS011;5307;42.548;22.968;2023-09-18T03:36:09;21.80;;;15.93;;
10517;SDS011;5307;42.548;22.968;2023-09-18T03:38:36;25.90;;;15.88;;
10517;SDS011;5307;42.548;22.968;2023-09-18T03:41:05;22.10;;;15.77;;
10517;SDS011;5307;42.548;22.968;2023-09-18T03:43:31;23.83;;;16.38;;
10517;SDS011;5307;42.548;22.968;2023-09-18T03:46:02;22.98;;;15.05;;
10517;SDS011;5307;42.548;22.968;2023-09-18T03:48:30;24.73;;;16.88;;
10517;SDS011;5307;42.548;22.968;2023-09-18T03:51:01;25.05;;;15.82;;
10517;SDS011;5307;42.548;22.968;2023-09-18T03:53:28;24.52;;;16.00;;
10517;SDS011;5307;42.548;22.968;2023-09-18T03:55:55;27.40;;;17.70;;
10517;SDS011;5307;42.548;22.968;2023-09-18T03:58:23;24.65;;;16.45;;
10517;SDS011;5307;42.548;22.968;2023-09-18T04:00:49;21.77;;;16.05;;
10517;SDS011;5307;42.548;22.968;2023-09-18T04:03:17;25.77;;;15.05;;
10517;SDS011;5307;42.548;22.968;2023-09-18T04:05:44;23.83;;;15.35;;
10517;SDS011;5307;42.548;22.968;2023-09-18T04:08:10;18.92;;;15.25;;
10517;SDS011;5307;42.548;22.968;2023-09-18T04:10:38;18.05;;;13.60;;
10517;SDS011;5307;42.548;22.968;2023-09-18T04:13:05;24.33;;;16.25;;
10517;SDS011;5307;42.548;22.968;2023-09-18T04:15:33;23.42;;;14.80;;
10517;SDS011;5307;42.548;22.968;2023-09-18T04:18:03;24.23;;;14.85;;
10517;SDS011;5307;42.548;22.968;2023-09-18T04:20:30;25.85;;;15.38;;
10517;SDS011;5307;42.548;22.968;2023-09-18T04:25:46;28.38;;;15.75;;
10517;SDS011;5307;42.548;22.968;2023-09-18T04:28:13;35.15;;;19.27;;
10517;SDS011;5307;42.548;22.968;2023-09-18T04:30:42;27.42;;;15.32;;
10517;SDS011;5307;42.548;22.968;2023-09-18T04:33:08;20.55;;;15.13;;
10517;SDS011;5307;42.548;22.968;2023-09-18T04:35:37;26.50;;;17.75;;
10517;SDS011;5307;42.548;22.968;2023-09-18T04:38:05;28.27;;;16.67;;
10517;SDS011;5307;42.548;22.968;2023-09-18T04:40:33;26.80;;;18.15;;
10517;SDS011;5307;42.548;22.968;2023-09-18T04:43:00;33.88;;;20.13;;
10517;SDS011;5307;42.548;22.968;2023-09-18T04:45:28;28.92;;;19.23;;
10517;SDS011;5307;42.548;22.968;2023-09-18T04:47:57;29.15;;;18.92;;
10517;SDS011;5307;42.548;22.968;2023-09-18T04:50:23;28.15;;;18.65;;
10517;SDS011;5307;42.548;22.968;2023-09-18T04:52:51;32.27;;;21.07;;
10517;SDS011;5307;42.548;22.968;2023-09-18T04:55:19;28.38;;;19.05;;
10517;SDS011;5307;42.548;22.968;2023-09-18T04:57:46;29.92;;;18.55;;
10517;SDS011;5307;42.548;22.968;2023-09-18T05:00:14;25.20;;;18.58;;
10517;SDS011;5307;42.548;22.968;2023-09-18T05:02:42;30.30;;;19.00;;
10517;SDS011;5307;42.548;22.968;2023-09-18T05:05:12;34.17;;;20.25;;
10517;SDS011;5307;42.548;22.968;2023-09-18T05:07:39;28.17;;;19.52;;
10517;SDS011;5307;42.548;22.968;2023-09-18T05:10:06;42.30;;;21.10;;
10517;SDS011;5307;42.548;22.968;2023-09-18T05:12:33;38.10;;;22.05;;
10517;SDS011;5307;42.548;22.968;2023-09-18T05:15:02;41.47;;;22.60;;
10517;SDS011;5307;42.548;22.968;2023-09-18T05:17:39;40.35;;;22.92;;
10517;SDS011;5307;42.548;22.968;2023-09-18T05:20:13;46.03;;;22.65;;
10517;SDS011;5307;42.548;22.968;2023-09-18T05:22:42;43.33;;;24.17;;
10517;SDS011;5307;42.548;22.968;2023-09-18T05:25:09;48.08;;;24.67;;
10517;SDS011;5307;42.548;22.968;2023-09-18T05:27:36;50.50;;;25.23;;
10517;SDS011;5307;42.548;22.968;2023-09-18T05:30:09;49.25;;;24.48;;
10517;SDS011;5307;42.548;22.968;2023-09-18T05:32:37;53.80;;;27.92;;
10517;SDS011;5307;42.548;22.968;2023-09-18T05:35:04;46.92;;;24.08;;
10517;SDS011;5307;42.548;22.968;2023-09-18T05:37:36;49.65;;;25.08;;
10517;SDS011;5307;42.548;22.968;2023-09-18T05:40:05;49.25;;;25.25;;
10517;SDS011;5307;42.548;22.968;2023-09-18T05:42:34;41.10;;;22.70;;
10517;SDS011;5307;42.548;22.968;2023-09-18T05:45:01;48.03;;;24.33;;
10517;SDS011;5307;42.548;22.968;2023-09-18T05:47:29;50.15;;;24.17;;
10517;SDS011;5307;42.548;22.968;2023-09-18T05:49:56;50.40;;;24.48;;
10517;SDS011;5307;42.548;22.968;2023-09-18T05:52:23;44.83;;;23.27;;
10517;SDS011;5307;42.548;22.968;2023-09-18T05:54:51;48.53;;;24.27;;
10517;SDS011;5307;42.548;22.968;2023-09-18T05:57:18;42.15;;;25.10;;
10517;SDS011;5307;42.548;22.968;2023-09-18T05:59:45;41.20;;;23.77;;
10517;SDS011;5307;42.548;22.968;2023-09-18T06:02:12;44.50;;;24.83;;
10517;SDS011;5307;42.548;22.968;2023-09-18T06:04:38;48.55;;;25.30;;
10517;SDS011;5307;42.548;22.968;2023-09-18T06:07:06;44.08;;;25.45;;
10517;SDS011;5307;42.548;22.968;2023-09-18T06:09:33;42.13;;;25.48;;
10517;SDS011;5307;42.548;22.968;2023-09-18T06:12:01;45.47;;;26.60;;
10517;SDS011;5307;42.548;22.968;2023-09-18T06:14:30;46.60;;;26.23;;
10517;SDS011;5307;42.548;22.968;2023-09-18T06:16:56;42.05;;;25.55;;
10517;SDS011;5307;42.548;22.968;2023-09-18T06:19:23;45.88;;;25.38;;
10517;SDS011;5307;42.548;22.968;2023-09-18T06:21:53;41.17;;;25.88;;
10517;SDS011;5307;42.548;22.968;2023-09-18T06:24:19;40.95;;;24.60;;
10517;SDS011;5307;42.548;22.968;2023-09-18T06:26:46;43.10;;;24.77;;
10517;SDS011;5307;42.548;22.968;2023-09-18T06:29:14;47.53;;;25.98;;
10517;SDS011;5307;42.548;22.968;2023-09-18T06:31:41;47.35;;;28.42;;
10517;SDS011;5307;42.548;22.968;2023-09-18T06:34:08;45.22;;;27.27;;
10517;SDS011;5307;42.548;22.968;2023-09-18T06:36:35;38.63;;;25.13;;
10517;SDS011;5307;42.548;22.968;2023-09-18T06:39:02;40.33;;;23.77;;
10517;SDS011;5307;42.548;22.968;2023-09-18T06:41:29;37.20;;;24.60;;
10517;SDS011;5307;42.548;22.968;2023-09-18T06:43:56;41.03;;;25.13;;
10517;SDS011;5307;42.548;22.968;2023-09-18T06:46:24;37.92;;;24.75;;
10517;SDS011;5307;42.548;22.968;2023-09-18T06:48:51;38.15;;;23.23;;
10517;SDS011;5307;42.548;22.968;2023-09-18T06:51:18;39.08;;;24.83;;
10517;SDS011;5307;42.548;22.968;2023-09-18T06:53:45;34.75;;;23.80;;
10517;SDS011;5307;42.548;22.968;2023-09-18T06:56:17;34.67;;;24.33;;
10517;SDS011;5307;42.548;22.968;2023-09-18T06:58:44;39.08;;;25.73;;
10517;SDS011;5307;42.548;22.968;2023-09-18T07:01:13;41.72;;;26.40;;
10517;SDS011;5307;42.548;22.968;2023-09-18T07:03:41;39.92;;;26.30;;
10517;SDS011;5307;42.548;22.968;2023-09-18T07:06:08;52.85;;;27.73;;
10517;SDS011;5307;42.548;22.968;2023-09-18T07:08:35;42.42;;;26.55;;
10517;SDS011;5307;42.548;22.968;2023-09-18T07:11:02;34.50;;;25.10;;
10517;SDS011;5307;42.548;22.968;2023-09-18T07:13:28;38.25;;;25.23;;
10517;SDS011;5307;42.548;22.968;2023-09-18T07:15:55;35.95;;;25.98;;
10517;SDS011;5307;42.548;22.968;2023-09-18T07:18:22;36.03;;;25.70;;
10517;SDS011;5307;42.548;22.968;2023-09-18T07:20:50;31.85;;;24.00;;
10517;SDS011;5307;42.548;22.968;2023-09-18T07:23:17;38.95;;;25.52;;
10517;SDS011;5307;42.548;22.968;2023-09-18T07:25:43;33.17;;;23.40;;
10517;SDS011;5307;42.548;22.968;2023-09-18T07:28:10;36.03;;;25.05;;
10517;SDS011;5307;42.548;22.968;2023-09-18T07:30:43;37.43;;;28.30;;
10517;SDS011;5307;42.548;22.968;2023-09-18T07:33:10;36.58;;;24.80;;
10517;SDS011;5307;42.548;22.968;2023-09-18T07:35:37;37.67;;;26.25;;
10517;SDS011;5307;42.548;22.968;2023-09-18T07:38:07;36.30;;;25.45;;
10517;SDS011;5307;42.548;22.968;2023-09-18T07:40:34;33.30;;;24.35;;
10517;SDS011;5307;42.548;22.968;2023-09-18T07:43:01;31.73;;;23.55;;
10517;SDS011;5307;42.548;22.968;2023-09-18T07:45:28;34.08;;;24.15;;
10517;SDS011;5307;42.548;22.968;2023-09-18T07:47:54;29.45;;;22.85;;
10517;SDS011;5307;42.548;22.968;2023-09-18T07:50:21;31.88;;;24.15;;
10517;SDS011;5307;42.548;22.968;2023-09-18T07:52:48;31.73;;;22.98;;
10517;SDS011;5307;42.548;22.968;2023-09-18T07:55:16;32.67;;;22.30;;
10517;SDS011;5307;42.548;22.968;2023-09-18T07:57:43;28.17;;;20.92;;
10517;SDS011;5307;42.548;22.968;2023-09-18T08:00:11;33.20;;;21.88;;
10517;SDS011;5307;42.548;22.968;2023-09-18T08:02:40;33.90;;;22.90;;
10517;SDS011;5307;42.548;22.968;2023-09-18T08:05:08;28.70;;;20.88;;
10517;SDS011;5307;42.548;22.968;2023-09-18T08:07:35;30.50;;;23.83;;
10517;SDS011;5307;42.548;22.968;2023-09-18T08:10:02;31.85;;;21.48;;
10517;SDS011;5307;42.548;22.968;2023-09-18T08:12:35;27.85;;;21.17;;
10517;SDS011;5307;42.548;22.968;2023-09-18T08:15:02;30.73;;;22.35;;
10517;SDS011;5307;42.548;22.968;2023-09-18T08:17:31;34.45;;;24.98;;
10517;SDS011;5307;42.548;22.968;2023-09-18T08:19:58;31.23;;;23.15;;
10517;SDS011;5307;42.548;22.968;2023-09-18T08:22:25;33.40;;;22.42;;
10517;SDS011;5307;42.548;22.968;2023-09-18T08:24:52;28.00;;;22.52;;
10517;SDS011;5307;42.548;22.968;2023-09-18T08:30:25;32.25;;;23.92;;
10517;SDS011;5307;42.548;22.968;2023-09-18T08:32:52;29.08;;;19.90;;
10517;SDS011;5307;42.548;22.968;2023-09-18T08:35:19;31.45;;;21.92;;
10517;SDS011;5307;42.548;22.968;2023-09-18T08:37:47;29.27;;;21.33;;
10517;SDS011;5307;42.548;22.968;2023-09-18T08:40:14;31.25;;;23.15;;
10517;SDS011;5307;42.548;22.968;2023-09-18T08:42:44;36.80;;;24.23;;
10517;SDS011;5307;42.548;22.968;2023-09-18T08:45:14;26.55;;;19.92;;
10517;SDS011;5307;42.548;22.968;2023-09-18T08:47:45;24.58;;;20.67;;
10517;SDS011;5307;42.548;22.968;2023-09-18T08:50:12;28.60;;;21.30;;
10517;SDS011;5307;42.548;22.968;2023-09-18T08:52:41;29.77;;;20.88;;
10517;SDS011;5307;42.548;22.968;2023-09-18T08:55:09;29.98;;;22.38;;
10517;SDS011;5307;42.548;22.968;2023-09-18T08:57:36;27.98;;;22.40;;
10517;SDS011;5307;42.548;22.968;2023-09-18T09:00:04;26.85;;;22.45;;
10517;SDS011;5307;42.548;22.968;2023-09-18T09:02:34;38.28;;;23.15;;
10517;SDS011;5307;42.548;22.968;2023-09-18T09:05:02;30.30;;;22.08;;
10517;SDS011;5307;42.548;22.968;2023-09-18T09:07:29;34.78;;;25.50;;
10517;SDS011;5307;42.548;22.968;2023-09-18T09:09:56;28.20;;;20.55;;
10517;SDS011;5307;42.548;22.968;2023-09-18T09:15:15;29.67;;;21.88;;
10517;SDS011;5307;42.548;22.968;2023-09-18T09:17:43;30.42;;;21.05;;
10517;SDS011;5307;42.548;22.968;2023-09-18T09:20:11;29.08;;;21.95;;
10517;SDS011;5307;42.548;22.968;2023-09-18T09:22:39;29.50;;;21.15;;
10517;SDS011;5307;42.548;22.968;2023-09-18T09:25:20;25.60;;;20.80;;
10517;SDS011;5307;42.548;22.968;2023-09-18T09:27:48;29.38;;;21.73;;
10517;SDS011;5307;42.548;22.968;2023-09-18T09:30:18;28.30;;;21.95;;
10517;SDS011;5307;42.548;22.968;2023-09-18T09:32:48;27.83;;;22.15;;
10517;SDS011;5307;42.548;22.968;2023-09-18T09:35:20;31.60;;;21.95;;
10517;SDS011;5307;42.548;22.968;2023-09-18T09:37:49;34.25;;;22.10;;
10517;SDS011;5307;42.548;22.968;2023-09-18T09:40:18;25.67;;;20.65;;
10517;SDS011;5307;42.548;22.968;2023-09-18T09:42:46;31.45;;;22.10;;
10517;SDS011;5307;42.548;22.968;2023-09-18T09:45:15;29.25;;;20.95;;
10517;SDS011;5307;42.548;22.968;2023-09-18T09:47:42;28.80;;;21.73;;
10517;SDS011;5307;42.548;22.968;2023-09-18T09:50:11;27.17;;;20.50;;
10517;SDS011;5307;42.548;22.968;2023-09-18T09:52:41;27.60;;;20.55;;
10517;SDS011;5307;42.548;22.968;2023-09-18T09:55:19;26.92;;;18.90;;
10517;SDS011;5307;42.548;22.968;2023-09-18T09:57:51;31.30;;;19.23;;
10517;SDS011;5307;42.548;22.968;2023-09-18T10:00:19;25.23;;;19.42;;
10517;SDS011;5307;42.548;22.968;2023-09-18T10:02:57;24.50;;;18.90;;
10517;SDS011;5307;42.548;22.968;2023-09-18T10:05:28;20.63;;;18.13;;
10517;SDS011;5307;42.548;22.968;2023-09-18T10:07:58;28.77;;;20.90;;
10517;SDS011;5307;42.548;22.968;2023-09-18T10:10:29;27.70;;;19.83;;
10517;SDS011;5307;42.548;22.968;2023-09-18T10:13:00;25.55;;;19.88;;
10517;SDS011;5307;42.548;22.968;2023-09-18T10:15:33;24.50;;;19.38;;
10517;SDS011;5307;42.548;22.968;2023-09-18T10:18:04;24.88;;;19.30;;
10517;SDS011;5307;42.548;22.968;2023-09-18T10:20:38;28.42;;;19.95;;
10517;SDS011;5307;42.548;22.968;2023-09-18T10:23:09;26.00;;;19.08;;
10517;SDS011;5307;42.548;22.968;2023-09-18T10:25:49;28.08;;;19.25;;
10517;SDS011;5307;42.548;22.968;2023-09-18T10:28:20;24.95;;;19.27;;
10517;SDS011;5307;42.548;22.968;2023-09-18T10:30:51;24.80;;;19.90;;
10517;SDS011;5307;42.548;22.968;2023-09-18T10:33:19;24.20;;;19.27;;
10517;SDS011;5307;42.548;22.968;2023-09-18T10:35:48;23.90;;;19.13;;
10517;SDS011;5307;42.548;22.968;2023-09-18T10:38:15;19.27;;;16.52;;
10517;SDS011;5307;42.548;22.968;2023-09-18T10:40:44;24.85;;;17.70;;
10517;SDS011;5307;42.548;22.968;2023-09-18T10:43:14;22.95;;;17.08;;
10517;SDS011;5307;42.548;22.968;2023-09-18T10:45:43;23.05;;;18.15;;
10517;SDS011;5307;42.548;22.968;2023-09-18T10:48:10;25.65;;;17.85;;
10517;SDS011;5307;42.548;22.968;2023-09-18T10:50:39;25.58;;;16.75;;
10517;SDS011;5307;42.548;22.968;2023-09-18T10:53:10;24.65;;;18.38;;
10517;SDS011;5307;42.548;22.968;2023-09-18T10:55:36;21.52;;;18.35;;
10517;SDS011;5307;42.548;22.968;2023-09-18T10:58:04;23.85;;;17.75;;
10517;SDS011;5307;42.548;22.968;2023-09-18T11:00:31;23.30;;;17.05;;
10517;SDS011;5307;42.548;22.968;2023-09-18T11:03:11;26.35;;;17.50;;
10517;SDS011;5307;42.548;22.968;2023-09-18T11:05:41;23.20;;;17.85;;
10517;SDS011;5307;42.548;22.968;2023-09-18T11:08:29;20.65;;;16.55;;
10517;SDS011;5307;42.548;22.968;2023-09-18T11:10:59;26.20;;;17.35;;
10517;SDS011;5307;42.548;22.968;2023-09-18T11:13:34;23.58;;;16.50;;
10517;SDS011;5307;42.548;22.968;2023-09-18T11:16:03;18.48;;;14.43;;
10517;SDS011;5307;42.548;22.968;2023-09-18T11:18:40;18.35;;;14.82;;
10517;SDS011;5307;42.548;22.968;2023-09-18T11:21:07;20.25;;;14.95;;
10517;SDS011;5307;42.548;22.968;2023-09-18T11:23:37;21.70;;;15.43;;
10517;SDS011;5307;42.548;22.968;2023-09-18T11:26:08;20.50;;;14.90;;
10517;SDS011;5307;42.548;22.968;2023-09-18T11:28:36;25.75;;;15.25;;
10517;SDS011;5307;42.548;22.968;2023-09-18T11:31:04;19.33;;;16.02;;
10517;SDS011;5307;42.548;22.968;2023-09-18T11:33:34;21.33;;;16.17;;
10517;SDS011;5307;42.548;22.968;2023-09-18T11:36:03;20.20;;;15.95;;
10517;SDS011;5307;42.548;22.968;2023-09-18T11:38:32;23.15;;;15.65;;
10517;SDS011;5307;42.548;22.968;2023-09-18T11:41:02;19.33;;;15.77;;
10517;SDS011;5307;42.548;22.968;2023-09-18T11:43:49;37.55;;;17.02;;
10517;SDS011;5307;42.548;22.968;2023-09-18T11:46:17;24.23;;;16.13;;
10517;SDS011;5307;42.548;22.968;2023-09-18T11:48:46;19.08;;;15.05;;
10517;SDS011;5307;42.548;22.968;2023-09-18T11:51:15;22.38;;;16.17;;
10517;SDS011;5307;42.548;22.968;2023-09-18T11:53:49;19.17;;;15.73;;
10517;SDS011;5307;42.548;22.968;2023-09-18T11:56:21;20.40;;;14.93;;
10517;SDS011;5307;42.548;22.968;2023-09-18T11:58:48;22.90;;;16.25;;
10517;SDS011;5307;42.548;22.968;2023-09-18T12:01:17;18.05;;;14.63;;
10517;SDS011;5307;42.548;22.968;2023-09-18T12:03:44;20.52;;;14.88;;
10517;SDS011;5307;42.548;22.968;2023-09-18T12:06:13;15.68;;;12.50;;
10517;SDS011;5307;42.548;22.968;2023-09-18T12:08:40;18.48;;;13.38;;
10517;SDS011;5307;42.548;22.968;2023-09-18T12:11:07;18.92;;;13.13;;
10517;SDS011;5307;42.548;22.968;2023-09-18T12:13:36;14.98;;;12.73;;
10517;SDS011;5307;42.548;22.968;2023-09-18T12:16:04;18.30;;;11.45;;
10517;SDS011;5307;42.548;22.968;2023-09-18T12:18:31;20.33;;;13.32;;
10517;SDS011;5307;42.548;22.968;2023-09-18T12:21:01;15.32;;;13.13;;
10517;SDS011;5307;42.548;22.968;2023-09-18T12:23:36;20.73;;;12.73;;
10517;SDS011;5307;42.548;22.968;2023-09-18T12:26:04;18.27;;;13.48;;
10517;SDS011;5307;42.548;22.968;2023-09-18T12:28:32;15.95;;;12.32;;
10517;SDS011;5307;42.548;22.968;2023-09-18T12:31:01;14.95;;;12.32;;
10517;SDS011;5307;42.548;22.968;2023-09-18T12:33:33;19.45;;;12.35;;
10517;SDS011;5307;42.548;22.968;2023-09-18T12:36:00;16.70;;;14.35;;
10517;SDS011;5307;42.548;22.968;2023-09-18T12:38:28;16.58;;;13.32;;
10517;SDS011;5307;42.548;22.968;2023-09-18T12:40:55;19.15;;;12.95;;
10517;SDS011;5307;42.548;22.968;2023-09-18T12:43:31;16.40;;;12.82;;
10517;SDS011;5307;42.548;22.968;2023-09-18T12:46:01;17.40;;;11.80;;
10517;SDS011;5307;42.548;22.968;2023-09-18T12:48:30;18.63;;;13.38;;
10517;SDS011;5307;42.548;22.968;2023-09-18T12:51:01;23.90;;;16.65;;
10517;SDS011;5307;42.548;22.968;2023-09-18T12:53:30;19.42;;;12.38;;
10517;SDS011;5307;42.548;22.968;2023-09-18T12:56:04;14.93;;;12.23;;
10517;SDS011;5307;42.548;22.968;2023-09-18T12:58:32;14.13;;;12.10;;
10517;SDS011;5307;42.548;22.968;2023-09-18T13:00:58;21.40;;;12.75;;
10517;SDS011;5307;42.548;22.968;2023-09-18T13:03:35;21.90;;;14.98;;
10517;SDS011;5307;42.548;22.968;2023-09-18T13:06:08;24.60;;;15.90;;
10517;SDS011;5307;42.548;22.968;2023-09-18T13:08:35;19.33;;;11.23;;
10517;SDS011;5307;42.548;22.968;2023-09-18T13:11:02;27.95;;;23.25;;
10517;SDS011;5307;42.548;22.968;2023-09-18T13:13:30;19.23;;;14.73;;
10517;SDS011;5307;42.548;22.968;2023-09-18T13:15:58;13.60;;;12.18;;
10517;SDS011;5307;42.548;22.968;2023-09-18T13:18:27;19.58;;;17.35;;
10517;SDS011;5307;42.548;22.968;2023-09-18T13:20:54;19.77;;;16.55;;
10517;SDS011;5307;42.548;22.968;2023-09-18T13:23:20;9.45;;;7.78;;
10517;SDS011;5307;42.548;22.968;2023-09-18T13:25:46;26.85;;;16.95;;
10517;SDS011;5307;42.548;22.968;2023-09-18T13:28:13;10.73;;;5.50;;
10517;SDS011;5307;42.548;22.968;2023-09-18T13:30:40;17.75;;;6.88;;
10517;SDS011;5307;42.548;22.968;2023-09-18T13:33:09;9.15;;;6.30;;
10517;SDS011;5307;42.548;22.968;2023-09-18T13:35:39;8.38;;;5.78;;
10517;SDS011;5307;42.548;22.968;2023-09-18T13:38:06;7.85;;;5.82;;
10517;SDS011;5307;42.548;22.968;2023-09-18T13:40:34;9.02;;;5.25;;
10517;SDS011;5307;42.548;22.968;2023-09-18T13:43:02;6.32;;;5.40;;
10517;SDS011;5307;42.548;22.968;2023-09-18T13:45:30;6.68;;;5.50;;
10517;SDS011;5307;42.548;22.968;2023-09-18T13:47:56;6.33;;;5.57;;
10517;SDS011;5307;42.548;22.968;2023-09-18T13:50:24;10.85;;;5.65;;
10517;SDS011;5307;42.548;22.968;2023-09-18T13:52:52;12.82;;;5.43;;
10517;SDS011;5307;42.548;22.968;2023-09-18T13:55:19;6.05;;;5.43;;
10517;SDS011;5307;42.548;22.968;2023-09-18T13:57:47;6.50;;;5.45;;
10517;SDS011;5307;42.548;22.968;2023-09-18T14:00:14;6.80;;;6.10;;
10517;SDS011;5307;42.548;22.968;2023-09-18T14:02:42;10.60;;;6.25;;
10517;SDS011;5307;42.548;22.968;2023-09-18T14:05:09;7.03;;;4.93;;
10517;SDS011;5307;42.548;22.968;2023-09-18T14:07:37;13.77;;;5.90;;
10517;SDS011;5307;42.548;22.968;2023-09-18T14:10:07;8.27;;;6.18;;
10517;SDS011;5307;42.548;22.968;2023-09-18T14:12:35;9.18;;;6.97;;
10517;SDS011;5307;42.548;22.968;2023-09-18T14:15:02;7.15;;;5.78;;
10517;SDS011;5307;42.548;22.968;2023-09-18T14:17:30;14.43;;;7.07;;
10517;SDS011;5307;42.548;22.968;2023-09-18T14:19:59;11.30;;;6.93;;
10517;SDS011;5307;42.548;22.968;2023-09-18T14:22:25;13.45;;;6.90;;
10517;SDS011;5307;42.548;22.968;2023-09-18T14:24:53;7.75;;;6.65;;
10517;SDS011;5307;42.548;22.968;2023-09-18T14:27:22;7.18;;;6.35;;
10517;SDS011;5307;42.548;22.968;2023-09-18T14:29:49;15.05;;;6.45;;
10517;SDS011;5307;42.548;22.968;2023-09-18T14:32:16;9.70;;;6.20;;
10517;SDS011;5307;42.548;22.968;2023-09-18T14:34:44;9.05;;;6.93;;
10517;SDS011;5307;42.548;22.968;2023-09-18T14:37:11;9.18;;;6.45;;
10517;SDS011;5307;42.548;22.968;2023-09-18T14:39:39;11.27;;;5.53;;